Time;durP1;ratioP1;P1;durP2;ratioP2;P2;SDS_P1;SDS_P2;PMS_P1;PMS_P2;Temp;Humidity;BMP_temperature;BMP_pressure;BME280_temperature;BME280_humidity;BME280_pressure;Samples;Min_cycle;Max_cycle;Signal;HPM_P1;HPM_P2
2023/06/16 00:01:15;;;;;;;20.90;15.60;;;;;;;-143.84;95.96;43925.78;5087027;28;20941;-55
2023/06/16 00:03:43;;;;;;;21.87;16.27;;;;;;;-143.84;96.13;43880.13;5086325;28;20492;-54
2023/06/16 00:06:14;;;;;;;16.73;14.17;;;;;;;-143.84;96.32;43857.28;5086220;28;20949;-54
2023/06/16 00:08:42;;;;;;;18.63;13.63;;;;;;;-143.84;95.90;43902.97;5085110;28;21459;-55
2023/06/16 00:11:09;;;;;;;17.50;14.70;;;;;;;-143.84;95.76;43912.47;5086553;28;20459;-55
2023/06/16 00:13:36;;;;;;;18.53;15.60;;;;;;;-143.84;95.55;43920.09;5086318;28;20448;-54
2023/06/16 00:16:03;;;;;;;16.50;13.53;;;;;;;-143.84;95.56;43925.78;5086442;28;20480;-55
2023/06/16 00:18:32;;;;;;;14.23;12.83;;;;;;;-143.84;95.55;43954.34;5085275;28;20452;-54
2023/06/16 00:21:01;;;;;;;14.20;12.10;;;;;;;-143.84;95.34;43996.22;5086471;28;20501;-54
2023/06/16 00:23:30;;;;;;;14.70;13.10;;;;;;;-143.84;95.07;44032.41;5086546;28;20488;-54
2023/06/16 00:25:57;;;;;;;18.60;14.43;;;;;;;-143.84;95.02;44043.81;5086326;28;20452;-54
2023/06/16 00:28:24;;;;;;;16.23;11.40;;;;;;;-143.84;94.70;44064.75;5085186;28;21048;-54
2023/06/16 00:30:51;;;;;;;15.10;12.03;;;;;;;-143.84;94.45;44177.06;5086537;28;20505;-54
2023/06/16 00:33:19;;;;;;;14.60;12.73;;;;;;;-143.84;94.15;44249.41;5086261;28;20436;-54
2023/06/16 00:35:46;;;;;;;15.43;12.60;;;;;;;-143.84;94.12;44279.88;5086336;28;20459;-54
2023/06/16 00:38:13;;;;;;;12.10;10.90;;;;;;;-143.84;94.18;44234.19;5085743;28;20525;-54
2023/06/16 00:40:41;;;;;;;13.83;11.53;;;;;;;-143.84;93.45;44430.28;5085118;28;20444;-54
2023/06/16 00:43:09;;;;;;;16.30;13.17;;;;;;;-143.84;93.35;44464.53;5086129;28;20510;-54
2023/06/16 00:45:36;;;;;;;15.20;13.37;;;;;;;-143.84;93.82;44386.47;5085948;28;20463;-54
2023/06/16 00:48:03;;;;;;;12.97;11.00;;;;;;;-143.84;93.79;44396.00;5086083;28;20519;-54
2023/06/16 00:50:32;;;;;;;12.90;11.60;;;;;;;-143.84;93.71;44415.03;5084765;28;20456;-54
2023/06/16 00:52:59;;;;;;;14.30;12.87;;;;;;;-143.84;93.72;44451.22;5084437;28;20440;-55
2023/06/16 00:55:27;;;;;;;15.17;13.70;;;;;;;-143.84;93.74;44396.00;5084416;28;20447;-55
2023/06/16 00:57:55;;;;;;;19.87;14.13;;;;;;;-143.84;93.78;44390.28;5086396;28;20467;-55
2023/06/16 01:00:23;;;;;;;13.13;11.83;;;;;;;-143.84;93.70;44390.28;5084694;28;20513;-55
2023/06/16 01:02:51;;;;;;;15.10;13.27;;;;;;;-143.84;93.83;44437.88;5085981;28;20479;-55
2023/06/16 01:05:23;;;;;;;19.63;13.90;;;;;;;-143.84;93.90;44375.06;5085697;28;20489;-55
2023/06/16 01:07:59;;;;;;;20.53;14.70;;;;;;;-143.84;94.06;44363.63;5091696;28;20448;-54
2023/06/16 01:10:33;;;;;;;15.67;13.63;;;;;;;-143.84;94.17;44300.81;5091856;28;20451;-55
2023/06/16 01:13:11;;;;;;;17.70;12.00;;;;;;;-143.84;94.16;44336.97;5091580;28;20455;-54
2023/06/16 01:15:43;;;;;;;21.13;14.17;;;;;;;-143.84;94.27;44272.25;5091208;28;20480;-55
2023/06/16 01:18:14;;;;;;;14.53;12.50;;;;;;;-143.84;94.58;44232.28;5091704;28;20982;-55
2023/06/16 01:20:48;;;;;;;16.20;13.93;;;;;;;-143.84;94.71;44154.22;5091912;28;20440;-54
2023/06/16 01:23:33;;;;;;;22.33;14.73;;;;;;;-143.84;95.95;44003.84;5091866;28;20481;-54
2023/06/16 01:26:04;;;;;;;16.17;14.07;;;;;;;-143.84;96.59;43849.66;5091420;28;21051;-54
2023/06/16 01:28:33;;;;;;;19.97;14.30;;;;;;;-143.84;96.97;43847.75;5091531;28;20448;-55
2023/06/16 01:31:01;;;;;;;18.43;15.40;;;;;;;-143.84;97.12;43807.78;5091703;28;20459;-54
2023/06/16 01:33:32;;;;;;;18.97;13.83;;;;;;;-143.84;97.27;43788.75;5091380;28;20540;-54
2023/06/16 01:36:01;;;;;;;14.50;12.70;;;;;;;-143.84;97.33;43815.41;5091500;28;20448;-55
2023/06/16 01:38:30;;;;;;;14.27;12.67;;;;;;;-143.84;97.23;43815.41;5092029;28;20839;-54
2023/06/16 01:40:59;;;;;;;15.70;14.10;;;;;;;-143.84;96.94;43809.69;5086752;28;20452;-55
2023/06/16 01:43:28;;;;;;;19.90;15.33;;;;;;;-143.84;96.74;43840.13;5082166;28;20472;-55
2023/06/16 01:45:57;;;;;;;14.70;13.20;;;;;;;-143.84;96.68;43830.63;5083223;28;20455;-54
2023/06/16 01:48:24;;;;;;;19.70;13.57;;;;;;;-143.84;96.50;43798.25;5083028;28;20440;-54
2023/06/16 01:50:52;;;;;;;14.37;12.13;;;;;;;-143.84;96.21;43882.00;5085469;28;20467;-54
2023/06/16 01:53:19;;;;;;;15.63;12.10;;;;;;;-143.84;95.77;43929.59;5083694;28;20451;-55
2023/06/16 01:55:49;;;;;;;17.90;14.07;;;;;;;-143.84;95.44;43981.00;5085012;28;20452;-54
2023/06/16 01:58:17;;;;;;;18.00;10.90;;;;;;;-143.84;95.33;44015.25;5084889;28;20441;-55
2023/06/16 02:00:50;;;;;;;17.07;12.27;;;;;;;-143.84;94.86;44066.66;5085325;28;20443;-55
2023/06/16 02:03:23;;;;;;;15.13;13.47;;;;;;;-143.84;94.85;44087.59;5083699;28;20472;-54
2023/06/16 02:05:52;;;;;;;14.10;12.60;;;;;;;-143.84;94.67;44139.00;5084393;28;21031;-54
2023/06/16 02:08:24;;;;;;;16.90;11.83;;;;;;;-143.84;94.63;44154.22;5084576;28;20431;-55
2023/06/16 02:10:52;;;;;;;13.10;11.80;;;;;;;-143.84;94.54;44167.56;5084803;28;20559;-55
2023/06/16 02:13:19;;;;;;;18.43;14.60;;;;;;;-143.84;94.56;44201.81;5082933;28;21115;-55
2023/06/16 02:15:48;;;;;;;17.50;14.60;;;;;;;-143.84;94.51;44213.25;5083520;28;20480;-55
2023/06/16 02:18:15;;;;;;;22.00;16.17;;;;;;;-143.84;94.73;44127.56;5084239;28;20443;-54
2023/06/16 02:20:42;;;;;;;17.30;14.77;;;;;;;-143.84;95.07;44095.22;5083829;28;20527;-55
2023/06/16 02:23:09;;;;;;;16.00;13.30;;;;;;;-143.84;95.28;44064.75;5082971;28;20540;-54
2023/06/16 02:25:36;;;;;;;13.43;11.50;;;;;;;-143.84;95.13;44038.09;5084102;28;20456;-54
2023/06/16 02:28:04;;;;;;;15.10;12.37;;;;;;;-143.84;94.91;44112.34;5084157;28;20464;-54
2023/06/16 02:30:31;;;;;;;15.40;13.43;;;;;;;-143.84;94.69;44146.63;5084027;28;20436;-54
2023/06/16 02:33:00;;;;;;;15.83;14.17;;;;;;;-143.84;94.61;44144.72;5082376;28;20445;-54
2023/06/16 02:35:27;;;;;;;15.83;13.23;;;;;;;-143.84;94.59;44184.69;5082675;28;20455;-54
2023/06/16 02:37:55;;;;;;;21.30;17.47;;;;;;;-143.84;95.04;44108.53;5082285;28;20529;-54
2023/06/16 02:40:22;;;;;;;27.57;15.70;;;;;;;-143.84;95.20;44057.16;5084009;28;21681;-54
2023/06/16 02:42:49;;;;;;;18.40;15.30;;;;;;;-143.84;95.42;44060.94;5082492;28;20484;-54
2023/06/16 02:45:16;;;;;;;17.60;15.63;;;;;;;-143.84;95.30;44059.03;5083791;28;20459;-54
2023/06/16 02:47:44;;;;;;;21.63;15.60;;;;;;;-143.84;95.55;44022.88;5083511;28;21265;-54
2023/06/16 02:50:12;;;;;;;21.57;16.97;;;;;;;-143.84;95.64;43984.81;5083639;28;20447;-55
2023/06/16 02:52:41;;;;;;;18.80;16.60;;;;;;;-143.84;95.82;44001.94;5082496;28;21754;-55
2023/06/16 02:55:09;;;;;;;18.73;14.40;;;;;;;-143.84;96.02;43941.03;5083653;28;21397;-55
2023/06/16 02:57:36;;;;;;;23.83;15.27;;;;;;;-143.84;95.70;43973.38;5083503;28;20445;-54
2023/06/16 03:00:08;;;;;;;16.37;14.20;;;;;;;-143.84;95.73;43956.25;5083102;28;20437;-54
2023/06/16 03:02:35;;;;;;;16.70;14.90;;;;;;;-143.84;95.79;43944.84;5081662;28;20444;-55
2023/06/16 03:05:04;;;;;;;17.10;15.10;;;;;;;-143.84;95.88;43920.09;5083795;28;20443;-55
2023/06/16 03:07:34;;;;;;;14.70;12.80;;;;;;;-143.84;95.33;44009.56;5084889;28;20447;-55
2023/06/16 03:10:01;;;;;;;14.70;13.00;;;;;;;-143.84;95.14;44043.81;5083408;28;20486;-55
2023/06/16 03:12:29;;;;;;;16.40;13.70;;;;;;;-143.84;95.06;44053.34;5082025;28;20459;-55
2023/06/16 03:14:56;;;;;;;15.60;14.00;;;;;;;-143.84;94.99;44089.50;5080679;28;20448;-55
2023/06/16 03:17:23;;;;;;;19.77;15.20;;;;;;;-143.84;95.01;44099.03;5083192;28;20456;-55
2023/06/16 03:19:50;;;;;;;19.13;14.73;;;;;;;-143.84;95.16;44051.44;5083311;28;20437;-54
2023/06/16 03:22:17;;;;;;;15.57;12.37;;;;;;;-143.84;95.50;43956.25;5083108;28;20479;-55
2023/06/16 03:24:47;;;;;;;13.63;12.30;;;;;;;-143.84;95.22;44003.84;5082551;28;20491;-54
2023/06/16 03:27:15;;;;;;;18.63;13.53;;;;;;;-143.84;95.42;43996.22;5083494;28;20471;-55
2023/06/16 03:29:42;;;;;;;14.90;12.43;;;;;;;-143.84;95.17;44003.84;5083052;28;20988;-55
2023/06/16 03:32:09;;;;;;;17.40;14.17;;;;;;;-143.84;95.27;43988.63;5082632;28;20454;-55
2023/06/16 03:34:38;;;;;;;13.20;12.00;;;;;;;-143.84;94.53;44028.59;5081438;28;20467;-55
2023/06/16 03:37:06;;;;;;;12.80;11.40;;;;;;;-143.84;93.94;44150.41;5082995;28;20456;-55
2023/06/16 03:39:33;;;;;;;13.93;12.53;;;;;;;-143.84;92.73;44413.13;5082791;28;20444;-55
2023/06/16 03:42:01;;;;;;;15.30;13.70;;;;;;;-143.84;91.52;44630.19;5082376;28;20444;-55
2023/06/16 03:44:28;;;;;;;12.67;11.37;;;;;;;-143.84;90.41;44772.97;5079744;28;20480;-55
2023/06/16 03:46:55;;;;;;;14.73;12.47;;;;;;;-143.84;90.12;44782.50;5080857;28;20440;-54
2023/06/16 03:49:23;;;;;;;16.77;13.37;;;;;;;-143.84;90.00;44841.53;5082559;28;20449;-54
2023/06/16 03:51:50;;;;;;;13.87;12.37;;;;;;;-143.84;89.78;44816.78;5082439;28;20448;-54
2023/06/16 03:54:17;;;;;;;12.60;11.30;;;;;;;-143.84;89.02;44868.19;5081810;28;20466;-54
2023/06/16 03:56:45;;;;;;;14.57;10.47;;;;;;;-143.84;89.24;44835.81;5082845;28;20558;-54
2023/06/16 03:59:13;;;;;;;27.60;13.17;;;;;;;-143.84;89.12;44822.47;5082980;28;20450;-55
2023/06/16 04:01:41;;;;;;;29.47;13.80;;;;;;;-143.84;88.67;44868.19;5082388;28;20459;-55
2023/06/16 04:04:09;;;;;;;14.30;11.17;;;;;;;-143.84;87.45;44917.69;5081182;28;20491;-54
2023/06/16 04:06:37;;;;;;;15.87;11.73;;;;;;;-143.84;86.95;44955.75;5082177;28;20457;-55
2023/06/16 04:09:05;;;;;;;11.90;10.77;;;;;;;-143.84;85.88;44972.91;5082629;28;20472;-55
2023/06/16 04:11:34;;;;;;;12.30;11.00;;;;;;;-143.84;85.07;44984.31;5082223;28;20452;-55
2023/06/16 04:14:01;;;;;;;11.40;10.30;;;;;;;-143.84;84.49;45003.38;5081217;28;20520;-55
2023/06/16 04:16:29;;;;;;;15.60;10.80;;;;;;;-143.84;82.98;45020.50;5082504;28;21429;-55
2023/06/16 04:18:56;;;;;;;10.37;9.23;;;;;;;-143.84;81.77;45026.22;5081106;28;20892;-55
2023/06/16 04:21:24;;;;;;;10.17;9.00;;;;;;;-143.84;81.53;45041.44;5082764;28;20456;-55
2023/06/16 04:23:51;;;;;;;10.93;9.67;;;;;;;-143.84;81.33;45043.34;5080656;28;20490;-55
2023/06/16 04:26:22;;;;;;;14.17;10.37;;;;;;;-143.84;80.10;45014.78;5081852;28;20455;-55
2023/06/16 04:28:53;;;;;;;13.43;10.97;;;;;;;-143.84;79.00;45007.19;5081583;28;20500;-55
2023/06/16 04:31:21;;;;;;;10.37;9.43;;;;;;;-143.84;77.80;45045.25;5082248;28;20537;-55
2023/06/16 04:33:50;;;;;;;17.47;10.17;;;;;;;-143.84;77.06;45035.75;5087549;28;20485;-55
2023/06/16 04:36:19;;;;;;;12.37;9.60;;;;;;;-143.84;76.75;45028.13;5087720;28;20997;-55
2023/06/16 04:38:46;;;;;;;13.53;9.70;;;;;;;-143.84;76.78;45020.50;5088196;28;20452;-55
2023/06/16 04:41:13;;;;;;;13.53;9.03;;;;;;;-143.84;77.08;45030.03;5087866;28;20459;-55
2023/06/16 04:43:41;;;;;;;10.73;8.70;;;;;;;-143.84;75.49;45050.97;5087964;28;20488;-55
2023/06/16 04:46:08;;;;;;;16.10;9.87;;;;;;;-143.84;73.96;45031.94;5091797;28;20440;-55
2023/06/16 04:48:36;;;;;;;13.10;8.60;;;;;;;-143.84;72.59;45026.22;5091676;28;20514;-55
2023/06/16 04:51:04;;;;;;;9.47;8.30;;;;;;;-143.84;72.72;45024.31;5091938;28;20448;-55
2023/06/16 04:53:31;;;;;;;11.50;7.90;;;;;;;-143.84;71.97;45045.25;5092018;28;20500;-55
2023/06/16 04:55:59;;;;;;;11.83;6.70;;;;;;;-143.84;71.00;45031.94;5091919;28;20441;-55
2023/06/16 04:58:26;;;;;;;8.80;7.90;;;;;;;-143.84;69.87;45035.75;5092116;28;20513;-55
2023/06/16 05:00:53;;;;;;;7.97;6.70;;;;;;;-143.84;69.03;45014.78;5092222;28;20436;-55
2023/06/16 05:03:20;;;;;;;9.93;7.10;;;;;;;-143.84;67.27;45056.69;5091397;28;20436;-55
2023/06/16 05:05:47;;;;;;;10.67;6.70;;;;;;;-143.84;66.70;45039.53;5091593;28;20445;-55
2023/06/16 05:08:16;;;;;;;9.13;7.13;;;;;;;-143.84;65.97;45024.31;5091777;28;20459;-55
2023/06/16 05:10:43;;;;;;;11.37;7.00;;;;;;;-143.84;66.95;45035.75;5084156;28;20449;-55
2023/06/16 05:13:10;;;;;;;9.77;7.60;;;;;;;-143.84;67.42;45052.88;5085581;28;20451;-55
2023/06/16 05:15:37;;;;;;;14.57;7.50;;;;;;;-143.84;68.21;45043.34;5084033;28;21415;-55
2023/06/16 05:18:04;;;;;;;6.90;6.20;;;;;;;-143.84;67.82;45031.94;5085645;28;20443;-55
2023/06/16 05:20:32;;;;;;;7.40;6.63;;;;;;;-143.84;68.15;45043.34;5084544;28;20508;-55
2023/06/16 05:23:01;;;;;;;15.63;7.30;;;;;;;-143.84;67.62;45050.97;5085712;28;20555;-55
2023/06/16 05:25:29;;;;;;;13.20;6.90;;;;;;;-143.84;68.41;45031.94;5085212;28;20990;-55
2023/06/16 05:27:56;;;;;;;10.30;6.87;;;;;;;-143.84;68.43;45054.78;5085182;28;20453;-55
2023/06/16 05:30:24;;;;;;;14.60;6.20;;;;;;;-143.84;68.51;45037.66;5084185;28;20452;-58
2023/06/16 05:32:51;;;;;;;7.53;6.77;;;;;;;-143.84;69.03;45010.97;5085579;28;20874;-55
2023/06/16 05:35:18;;;;;;;8.83;6.30;;;;;;;-143.84;68.77;45037.66;5085006;28;20453;-55
2023/06/16 05:37:45;;;;;;;8.50;6.00;;;;;;;-143.84;66.24;45012.88;5084896;28;20453;-55
2023/06/16 05:40:12;;;;;;;17.30;6.30;;;;;;;-143.84;63.89;45022.41;5082642;28;20437;-55
2023/06/16 05:42:41;;;;;;;9.70;5.80;;;;;;;-143.84;63.73;44988.13;5084547;28;20863;-55
2023/06/16 05:45:09;;;;;;;8.07;6.13;;;;;;;-143.84;62.94;45022.41;5083218;28;20476;-55
2023/06/16 05:47:36;;;;;;;8.70;5.53;;;;;;;-143.84;62.57;45031.94;5085288;28;20444;-55
2023/06/16 05:50:03;;;;;;;15.77;5.77;;;;;;;-143.84;61.97;45031.94;5083503;28;20457;-55
2023/06/16 05:52:31;;;;;;;8.00;6.53;;;;;;;-143.84;61.80;45050.97;5085022;28;20451;-55
2023/06/16 05:54:58;;;;;;;10.73;6.77;;;;;;;-143.84;63.08;45024.31;5084874;28;20432;-55
2023/06/16 05:57:25;;;;;;;13.57;6.03;;;;;;;-143.84;62.74;45039.53;5083908;28;20444;-55
2023/06/16 05:59:54;;;;;;;7.83;6.03;;;;;;;-143.84;63.32;44982.41;5083251;28;20990;-55
2023/06/16 06:02:21;;;;;;;7.60;5.20;;;;;;;-143.84;59.96;45035.75;5084647;28;21134;-55
2023/06/16 06:04:49;;;;;;;11.13;6.67;;;;;;;-143.84;59.65;45028.13;5084529;28;20486;-55
2023/06/16 06:07:16;;;;;;;9.47;5.47;;;;;;;-143.84;59.33;45024.31;5084682;28;20467;-55
2023/06/16 06:09:43;;;;;;;8.07;5.40;;;;;;;-143.84;59.92;45010.97;5083084;28;20441;-55
2023/06/16 06:12:11;;;;;;;9.70;5.57;;;;;;;-143.84;60.85;45024.31;5084391;28;20878;-55
2023/06/16 06:14:38;;;;;;;6.80;5.57;;;;;;;-143.84;60.50;45022.41;5086907;28;20494;-55
2023/06/16 06:17:07;;;;;;;16.67;6.57;;;;;;;-143.84;62.24;45037.66;5090166;28;20484;-55
2023/06/16 06:19:34;;;;;;;25.37;6.20;;;;;;;-143.84;62.15;45022.41;5090707;28;20461;-55
2023/06/16 06:22:01;;;;;;;8.60;6.07;;;;;;;-143.84;61.12;45045.25;5090292;28;20455;-55
2023/06/16 06:24:28;;;;;;;10.37;5.70;;;;;;;-143.84;59.27;45031.94;5090094;28;20476;-55
2023/06/16 06:26:57;;;;;;;12.13;5.50;;;;;;;-143.84;58.25;45039.53;5090382;28;20505;-55
2023/06/16 06:29:24;;;;;;;10.67;5.73;;;;;;;-143.84;58.84;44999.56;5090276;28;20441;-55
2023/06/16 06:31:51;;;;;;;6.27;4.90;;;;;;;-143.84;58.70;45030.03;5090268;28;20444;-55
2023/06/16 06:34:20;;;;;;;6.43;5.83;;;;;;;-143.84;60.74;45024.31;5090105;28;20432;-55
2023/06/16 06:36:48;;;;;;;12.37;6.37;;;;;;;-143.84;62.35;45009.09;5090585;28;20450;-57
2023/06/16 06:39:15;;;;;;;15.53;6.33;;;;;;;-143.84;62.31;45022.41;5090695;28;20536;-57
2023/06/16 06:41:42;;;;;;;8.60;6.53;;;;;;;-143.84;64.42;45075.72;5090444;28;20448;-56
2023/06/16 06:44:10;;;;;;;9.00;5.20;;;;;;;-143.84;64.48;45020.50;5088906;28;20487;-57
2023/06/16 06:46:37;;;;;;;11.00;6.13;;;;;;;-143.84;64.91;45007.19;5090746;28;20948;-57
2023/06/16 06:49:04;;;;;;;12.03;6.27;;;;;;;-143.84;63.53;45028.13;5090434;28;20436;-57
2023/06/16 06:51:32;;;;;;;8.23;5.87;;;;;;;-143.84;64.37;45020.50;5090354;28;20445;-57
2023/06/16 06:53:59;;;;;;;7.20;5.60;;;;;;;-143.84;63.83;45026.22;5089726;28;20463;-57
2023/06/16 06:56:27;;;;;;;5.90;5.50;;;;;;;-143.84;63.90;45028.13;5090304;28;20830;-57
2023/06/16 06:58:54;;;;;;;12.47;5.77;;;;;;;-143.84;64.99;45066.22;5090180;28;20790;-57
2023/06/16 07:01:21;;;;;;;9.43;6.30;;;;;;;-143.84;65.53;45033.84;5090292;28;20442;-57
2023/06/16 07:03:48;;;;;;;9.70;6.53;;;;;;;-143.84;64.62;45045.25;5090064;28;20455;-57
2023/06/16 07:06:15;;;;;;;10.80;6.73;;;;;;;-143.84;65.36;45033.84;5089874;28;20537;-57
2023/06/16 07:08:44;;;;;;;11.97;7.20;;;;;;;-143.84;66.42;45033.84;5090109;28;20444;-56
2023/06/16 07:11:11;;;;;;;9.03;6.80;;;;;;;-143.84;66.65;45043.34;5090032;28;20514;-57
2023/06/16 07:13:38;;;;;;;10.90;6.47;;;;;;;-143.84;67.76;45033.84;5089999;28;20846;-57
2023/06/16 07:16:05;;;;;;;17.47;7.20;;;;;;;-143.84;66.70;45031.94;5089766;28;20500;-57
2023/06/16 07:18:32;;;;;;;8.47;6.80;;;;;;;-143.84;66.68;45056.69;5089041;28;20494;-57
2023/06/16 07:20:59;;;;;;;14.27;6.50;;;;;;;-143.84;66.16;45031.94;5089309;28;21039;-57
2023/06/16 07:23:26;;;;;;;6.70;6.20;;;;;;;-143.84;64.96;45077.63;5089412;28;20490;-57
2023/06/16 07:25:55;;;;;;;8.50;6.60;;;;;;;-143.84;65.50;45045.25;5089619;28;20480;-57
2023/06/16 07:28:22;;;;;;;19.40;7.17;;;;;;;-143.84;66.37;44995.75;5089969;28;20436;-57
2023/06/16 07:30:49;;;;;;;9.10;6.50;;;;;;;-143.84;66.27;45030.03;5089843;28;20445;-57
2023/06/16 07:33:17;;;;;;;12.50;7.40;;;;;;;-143.84;63.22;45049.06;5085325;28;20456;-57
2023/06/16 07:35:44;;;;;;;10.57;7.47;;;;;;;-143.84;66.12;45010.97;5083880;28;20923;-57
2023/06/16 07:38:11;;;;;;;9.47;7.10;;;;;;;-143.84;65.52;45037.66;5083755;28;21600;-57
2023/06/16 07:40:38;;;;;;;12.43;8.17;;;;;;;-143.84;65.55;45007.19;5083926;28;20715;-57
2023/06/16 07:43:07;;;;;;;9.03;7.37;;;;;;;-143.84;62.95;45028.13;5084868;28;20482;-57
2023/06/16 07:45:35;;;;;;;9.70;6.10;;;;;;;-143.84;55.87;45001.47;5084428;28;20473;-57
2023/06/16 07:48:02;;;;;;;20.27;7.30;;;;;;;-143.84;57.88;45026.22;5085759;28;20446;-57
2023/06/16 07:50:29;;;;;;;8.60;7.60;;;;;;;-143.84;59.02;45020.50;5094458;28;20463;-57
2023/06/16 07:52:56;;;;;;;7.60;6.90;;;;;;;-143.84;61.65;44988.13;5089445;28;20482;-57
2023/06/16 07:55:24;;;;;;;7.73;6.80;;;;;;;-143.84;57.25;45001.47;5087647;28;20460;-57
2023/06/16 07:57:51;;;;;;;11.03;5.90;;;;;;;-143.84;52.64;45014.78;5088927;28;20456;-57
2023/06/16 08:00:21;;;;;;;12.50;5.93;;;;;;;-143.84;52.26;44997.66;5088089;28;20462;-57
2023/06/16 08:02:48;;;;;;;17.50;6.47;;;;;;;-143.84;54.47;45009.09;5089191;28;20458;-57
2023/06/16 08:05:16;;;;;;;7.90;6.03;;;;;;;-143.84;52.61;45012.88;5087839;28;21212;-57
2023/06/16 08:07:44;;;;;;;6.70;5.60;;;;;;;-143.84;51.55;44993.84;5089426;28;20450;-57
2023/06/16 08:10:12;;;;;;;14.57;5.90;;;;;;;-143.84;52.18;45014.78;5080047;28;20460;-57
2023/06/16 08:12:39;;;;;;;7.57;6.87;;;;;;;-143.84;53.43;44995.75;5069185;28;20445;-57
2023/06/16 08:15:07;;;;;;;13.47;6.20;;;;;;;-143.84;53.99;44995.75;5069216;28;20567;-57
2023/06/16 08:17:36;;;;;;;14.93;6.93;;;;;;;-143.84;54.38;45016.69;5069187;28;20451;-57
2023/06/16 08:20:06;;;;;;;9.90;6.50;;;;;;;-143.84;56.50;45014.78;5078514;28;20550;-57
2023/06/16 08:22:33;;;;;;;8.30;5.90;;;;;;;-143.84;57.04;45003.38;5093536;28;20444;-57
2023/06/16 08:25:01;;;;;;;6.97;5.87;;;;;;;-143.84;52.16;44995.75;5092092;28;20487;-57
2023/06/16 08:27:28;;;;;;;15.50;6.20;;;;;;;-143.84;52.90;45001.47;5093300;28;20445;-57
2023/06/16 08:29:55;;;;;;;10.27;6.07;;;;;;;-143.84;53.16;44993.84;5086595;28;20452;-57
2023/06/16 08:32:22;;;;;;;12.93;5.93;;;;;;;-143.84;52.69;45007.19;5080167;28;20452;-57
2023/06/16 08:34:51;;;;;;;6.30;5.47;;;;;;;-143.84;53.00;44978.63;5072444;28;20452;-57
2023/06/16 08:37:18;;;;;;;10.77;6.27;;;;;;;-143.84;51.74;44982.41;5072361;28;20838;-57
2023/06/16 08:39:46;;;;;;;9.33;6.77;;;;;;;-143.84;51.58;44972.91;5072187;28;20860;-57
2023/06/16 08:42:14;;;;;;;12.20;5.83;;;;;;;-143.84;49.48;45001.47;5072797;28;20456;-57
2023/06/16 08:44:41;;;;;;;11.90;6.27;;;;;;;-143.84;50.42;44993.84;5072712;28;20502;-57
2023/06/16 08:47:09;;;;;;;9.97;6.50;;;;;;;-143.84;50.08;44982.41;5072743;28;20440;-57
2023/06/16 08:49:39;;;;;;;15.53;6.50;;;;;;;-143.84;51.61;44980.53;5072505;28;20454;-57
2023/06/16 08:52:09;;;;;;;6.07;5.50;;;;;;;-143.84;48.22;44991.94;5072519;28;20473;-57
2023/06/16 08:54:46;;;;;;;9.40;6.43;;;;;;;-143.84;50.61;44984.31;5089807;28;20451;-57
2023/06/16 08:57:15;;;;;;;16.13;6.30;;;;;;;-143.84;51.45;45005.28;5109367;28;20452;-57
2023/06/16 08:59:47;;;;;;;10.47;6.07;;;;;;;-143.84;51.23;45014.78;5113165;28;20453;-57
2023/06/16 09:02:15;;;;;;;7.97;6.13;;;;;;;-143.84;50.87;45014.78;5112921;28;20508;-57
2023/06/16 09:04:43;;;;;;;7.23;6.20;;;;;;;-143.84;49.07;44993.84;5112790;28;20525;-57
2023/06/16 09:07:16;;;;;;;9.70;5.80;;;;;;;-143.84;47.50;45003.38;5112941;28;20461;-57
2023/06/16 09:09:44;;;;;;;9.43;5.40;;;;;;;-143.84;48.28;45010.97;5112457;28;20462;-57
2023/06/16 09:12:12;;;;;;;8.93;5.30;;;;;;;-143.84;47.68;45009.09;5111570;28;20860;-57
2023/06/16 09:14:41;;;;;;;7.93;6.07;;;;;;;-143.84;48.43;45026.22;5111755;27;20449;-57
2023/06/16 09:17:09;;;;;;;6.73;5.60;;;;;;;-143.84;50.17;44986.22;5112196;28;20581;-57
2023/06/16 09:19:47;;;;;;;6.67;5.50;;;;;;;-143.84;49.95;45016.69;5111785;28;20474;-57
2023/06/16 09:22:18;;;;;;;9.70;4.97;;;;;;;-143.84;48.99;44976.72;5111890;28;20439;-57
2023/06/16 09:24:46;;;;;;;6.73;4.13;;;;;;;-143.84;46.24;44988.13;5112581;28;20440;-57
2023/06/16 09:27:13;;;;;;;8.00;4.90;;;;;;;-143.84;43.55;45001.47;5112530;28;20518;-57
2023/06/16 09:29:41;;;;;;;10.33;4.67;;;;;;;-143.84;44.47;45007.19;5112405;28;20436;-57
2023/06/16 09:32:09;;;;;;;6.70;5.27;;;;;;;-143.84;44.82;44984.31;5111045;28;20800;-57
2023/06/16 09:34:37;;;;;;;7.27;5.20;;;;;;;-143.84;44.39;45001.47;5112225;28;20458;-57
2023/06/16 09:37:06;;;;;;;14.20;5.40;;;;;;;-143.84;45.45;45003.38;5112381;28;21271;-57
2023/06/16 09:39:35;;;;;;;6.60;5.67;;;;;;;-143.84;47.28;44999.56;5112380;28;20503;-57
2023/06/16 09:42:03;;;;;;;6.83;5.30;;;;;;;-143.84;47.53;45014.78;5112356;28;20447;-57
2023/06/16 09:44:32;;;;;;;10.40;5.20;;;;;;;-143.84;48.21;45005.28;5112036;28;20535;-57
2023/06/16 09:47:01;;;;;;;10.60;5.20;;;;;;;-143.84;44.74;44999.56;5111994;28;20488;-57
2023/06/16 09:49:29;;;;;;;5.57;4.83;;;;;;;-143.84;42.89;45007.19;5111851;28;20450;-56
2023/06/16 09:51:57;;;;;;;4.77;4.13;;;;;;;-143.84;43.84;45022.41;5112272;28;20439;-57
2023/06/16 09:54:26;;;;;;;9.97;5.80;;;;;;;-143.84;45.40;44999.56;5095872;28;20451;-57
2023/06/16 09:56:58;;;;;;;9.83;5.33;;;;;;;-143.84;45.42;45007.19;5091829;28;20457;-57
2023/06/16 09:59:27;;;;;;;6.80;4.10;;;;;;;-143.84;45.15;44995.75;5091351;28;20473;-57
2023/06/16 10:01:56;;;;;;;6.20;4.70;;;;;;;-143.84;44.15;45005.28;5091308;28;20451;-57
2023/06/16 10:04:24;;;;;;;7.67;5.33;;;;;;;-143.84;44.57;45003.38;5091716;28;20493;-57
2023/06/16 10:06:54;;;;;;;6.17;4.70;;;;;;;-143.84;44.98;44988.13;5091299;28;20489;-57
2023/06/16 10:09:27;;;;;;;17.23;4.90;;;;;;;-143.84;43.87;44984.31;5091301;28;20520;-57
2023/06/16 10:11:57;;;;;;;10.73;5.20;;;;;;;-143.84;44.67;44999.56;5091337;28;20440;-57
2023/06/16 10:14:28;;;;;;;7.80;5.10;;;;;;;-143.84;43.99;44986.22;5091037;28;20879;-57
2023/06/16 10:16:58;;;;;;;7.50;5.23;;;;;;;-143.84;43.96;45003.38;5090591;28;20483;-56
2023/06/16 10:19:27;;;;;;;10.47;6.20;;;;;;;-143.84;43.84;45010.97;5090500;28;20440;-56
2023/06/16 10:21:55;;;;;;;8.23;5.90;;;;;;;-143.84;45.76;45014.78;5090676;28;20474;-57
2023/06/16 10:24:23;;;;;;;10.47;6.03;;;;;;;-143.84;45.31;45014.78;5090594;28;20433;-56
2023/06/16 10:26:51;;;;;;;10.30;6.30;;;;;;;-143.84;45.32;45005.28;5090826;28;20479;-57
2023/06/16 10:29:21;;;;;;;9.97;5.50;;;;;;;-143.84;44.72;44999.56;5091110;28;20447;-57
2023/06/16 10:31:49;;;;;;;7.97;5.10;;;;;;;-143.84;45.04;45012.88;5091061;28;20455;-57
2023/06/16 10:34:22;;;;;;;10.57;5.60;;;;;;;-143.84;43.63;44997.66;5090411;28;20462;-58
2023/06/16 10:36:52;;;;;;;6.63;5.07;;;;;;;-143.84;44.06;44980.53;5090392;28;20854;-58
2023/06/16 10:39:19;;;;;;;7.90;4.90;;;;;;;-143.84;44.68;44991.94;5090148;28;20527;-58
2023/06/16 10:41:52;;;;;;;5.50;5.00;;;;;;;-143.84;43.68;45003.38;5089641;28;20450;-58
2023/06/16 10:44:29;;;;;;;6.73;4.23;;;;;;;-143.84;43.96;44988.13;5090037;28;20564;-58
2023/06/16 10:47:28;;;;;;;12.13;5.80;;;;;;;-143.84;44.27;44974.81;5090070;28;20487;-58
2023/06/16 10:49:57;;;;;;;8.17;5.10;;;;;;;-143.84;44.85;44995.75;5089959;28;20450;-58
2023/06/16 10:52:53;;;;;;;8.00;5.27;;;;;;;-143.84;45.36;44980.53;5090173;28;20521;-58
2023/06/16 10:55:31;;;;;;;13.53;5.70;;;;;;;-143.84;44.45;45018.59;5069482;28;20429;-58
2023/06/16 10:58:20;;;;;;;14.30;5.80;;;;;;;-143.84;45.05;44993.84;5069126;28;20451;-58
2023/06/16 11:01:23;;;;;;;7.63;5.40;;;;;;;-143.84;45.24;45012.88;5069479;28;20435;-58
2023/06/16 11:04:00;;;;;;;9.23;5.20;;;;;;;-143.84;49.25;45003.38;5069524;28;20537;-58
2023/06/16 11:06:28;;;;;;;9.27;5.27;;;;;;;-143.84;48.64;45010.97;5073040;28;20506;-58
2023/06/16 11:08:57;;;;;;;11.27;6.30;;;;;;;-143.84;49.33;45028.13;5089470;28;20438;-58
2023/06/16 11:11:33;;;;;;;10.03;6.50;;;;;;;-143.84;49.51;45003.38;5089451;28;20436;-58
2023/06/16 11:14:01;;;;;;;8.63;6.03;;;;;;;-143.84;50.53;45020.50;5089426;28;20436;-57
2023/06/16 11:16:30;;;;;;;9.30;6.03;;;;;;;-143.84;54.64;45035.75;5089685;28;20479;-58